Time;durP1;ratioP1;P1;durP2;ratioP2;P2;SDS_P1;SDS_P2;PMS_P1;PMS_P2;Temp;Humidity;BMP_temperature;BMP_pressure;BME280_temperature;BME280_humidity;BME280_pressure;Samples;Min_cycle;Max_cycle;Signal;HPM_P1;HPM_P2
2023/10/12 00:02:33;;;;;;;4.82;3.47;;;;;;;;;;6025541;29;20132;-88
2023/10/12 00:05:35;;;;;;;2.65;2.55;;;;;;;;;;6025142;29;20057;-87
2023/10/12 00:08:37;;;;;;;3.63;3.33;;;;;;;;;;6023955;29;20049;-87
2023/10/12 00:11:40;;;;;;;3.05;2.85;;;;;;;;;;6025538;29;20045;-87
2023/10/12 00:14:42;;;;;;;4.95;4.75;;;;;;;;;;6021556;29;20064;-87
2023/10/12 00:17:43;;;;;;;2.70;2.60;;;;;;;;;;6024208;29;20511;-87
2023/10/12 00:20:50;;;;;;;3.15;2.95;;;;;;;;;;6024014;29;20061;-87
2023/10/12 00:23:52;;;;;;;3.10;3.00;;;;;;;;;;6023086;29;20049;-87
2023/10/12 00:26:54;;;;;;;3.30;3.05;;;;;;;;;;6024596;29;20148;-87
2023/10/12 00:29:56;;;;;;;2.90;2.80;;;;;;;;;;6026186;29;20148;-87
2023/10/12 00:32:57;;;;;;;4.65;2.95;;;;;;;;;;6004888;29;20571;-88
2023/10/12 00:36:00;;;;;;;3.88;3.65;;;;;;;;;;6022928;29;20033;-87
2023/10/12 00:39:09;;;;;;;2.95;2.85;;;;;;;;;;6017641;29;20300;-87
2023/10/12 00:42:16;;;;;;;3.53;3.30;;;;;;;;;;6036595;29;20509;-87
2023/10/12 00:45:28;;;;;;;3.13;3.03;;;;;;;;;;6018690;29;20054;-88
2023/10/12 00:48:31;;;;;;;5.57;2.83;;;;;;;;;;6022650;29;20168;-87
2023/10/12 00:51:40;;;;;;;3.55;3.22;;;;;;;;;;6001738;29;20049;-90
2023/10/12 00:54:49;;;;;;;2.60;2.53;;;;;;;;;;6003115;29;20128;-91
2023/10/12 00:57:51;;;;;;;4.22;2.90;;;;;;;;;;6023300;29;20045;-90
2023/10/12 01:00:53;;;;;;;8.50;4.15;;;;;;;;;;6017591;29;21003;-89
2023/10/12 01:03:55;;;;;;;3.88;3.63;;;;;;;;;;6023347;29;20427;-89
2023/10/12 01:07:00;;;;;;;12.07;4.22;;;;;;;;;;6022481;29;20050;-89
2023/10/12 01:10:09;;;;;;;3.65;3.35;;;;;;;;;;6021224;29;20046;-89
2023/10/12 01:13:11;;;;;;;3.72;3.53;;;;;;;;;;6023088;29;20049;-89
2023/10/12 01:16:29;;;;;;;3.15;3.05;;;;;;;;;;6022555;29;20060;-90
2023/10/12 01:19:31;;;;;;;3.25;3.15;;;;;;;;;;6023164;29;20465;-90
2023/10/12 01:22:33;;;;;;;2.92;2.83;;;;;;;;;;6007281;29;20477;-93
2023/10/12 01:25:40;;;;;;;4.70;4.30;;;;;;;;;;6021126;29;20157;-95
2023/10/12 01:28:48;;;;;;;4.07;3.72;;;;;;;;;;6020088;29;20430;-94
2023/10/12 01:35:12;;;;;;;4.38;4.18;;;;;;;;;;6017081;29;20105;-93
2023/10/12 01:38:14;;;;;;;2.92;2.83;;;;;;;;;;6004182;29;20056;-94
2023/10/12 01:41:25;;;;;;;4.30;3.92;;;;;;;;;;6021584;29;20054;-96
2023/10/12 01:44:28;;;;;;;2.80;2.65;;;;;;;;;;6032609;29;20049;-96
2023/10/12 01:47:29;;;;;;;10.02;3.63;;;;;;;;;;6046245;29;20066;-96
2023/10/12 01:50:33;;;;;;;4.03;3.72;;;;;;;;;;6015773;29;20049;-95
2023/10/12 01:53:37;;;;;;;4.43;4.22;;;;;;;;;;6030502;29;20101;-96
2023/10/12 01:56:39;;;;;;;4.90;4.45;;;;;;;;;;6021304;29;20132;-96
2023/10/12 01:59:41;;;;;;;5.05;4.57;;;;;;;;;;6006299;29;20060;-94
2023/10/12 02:02:53;;;;;;;3.95;3.60;;;;;;;;;;6009949;29;20133;-94
2023/10/12 02:09:08;;;;;;;3.85;3.65;;;;;;;;;;6031719;29;20049;-91
2023/10/12 02:12:12;;;;;;;3.78;3.67;;;;;;;;;;6023049;29;20041;-93
2023/10/12 02:15:15;;;;;;;4.70;4.50;;;;;;;;;;6014869;29;20423;-94
2023/10/12 02:18:18;;;;;;;5.18;4.78;;;;;;;;;;6023455;29;20497;-93
2023/10/12 02:21:21;;;;;;;4.47;4.28;;;;;;;;;;6025313;29;20174;-94
2023/10/12 02:24:23;;;;;;;5.43;5.03;;;;;;;;;;6042527;29;20060;-94
2023/10/12 02:27:28;;;;;;;6.13;5.63;;;;;;;;;;6027832;29;20097;-95
2023/10/12 02:30:30;;;;;;;5.00;4.70;;;;;;;;;;6026363;29;20140;-95
2023/10/12 02:33:37;;;;;;;3.95;3.75;;;;;;;;;;6015767;29;20068;-91
2023/10/12 02:36:39;;;;;;;4.22;4.03;;;;;;;;;;6017141;29;20051;-90
2023/10/12 02:39:41;;;;;;;3.55;3.45;;;;;;;;;;6020799;29;20049;-90
2023/10/12 02:42:47;;;;;;;4.60;4.20;;;;;;;;;;6014432;29;20044;-89
2023/10/12 02:45:50;;;;;;;3.53;3.42;;;;;;;;;;6036686;29;20058;-91
2023/10/12 02:48:52;;;;;;;3.22;3.10;;;;;;;;;;6023049;29;20057;-94
2023/10/12 02:51:54;;;;;;;4.53;4.15;;;;;;;;;;6022977;29;20057;-92
2023/10/12 02:54:57;;;;;;;4.18;3.97;;;;;;;;;;6042662;29;20049;-95
2023/10/12 02:57:59;;;;;;;3.47;3.38;;;;;;;;;;6025414;29;20054;-94
2023/10/12 03:01:19;;;;;;;3.10;3.00;;;;;;;;;;6038656;29;20413;-96
2023/10/12 03:04:24;;;;;;;3.93;3.73;;;;;;;;;;6044667;29;20056;-96
2023/10/12 03:07:28;;;;;;;4.65;4.45;;;;;;;;;;6014661;29;20324;-94
2023/10/12 03:10:30;;;;;;;4.90;4.60;;;;;;;;;;6043668;29;20053;-91
2023/10/12 03:13:40;;;;;;;3.42;3.22;;;;;;;;;;6040890;29;20049;-92
2023/10/12 03:16:43;;;;;;;3.83;3.63;;;;;;;;;;6034753;29;20049;-94
2023/10/12 03:23:19;;;;;;;3.80;3.70;;;;;;;;;;6016447;29;20186;-96
2023/10/12 03:26:24;;;;;;;4.55;4.25;;;;;;;;;;5996936;29;20069;-96
2023/10/12 03:29:28;;;;;;;5.05;4.65;;;;;;;;;;6003991;29;20113;-90
2023/10/12 03:32:31;;;;;;;4.50;4.03;;;;;;;;;;6007914;29;20469;-91
2023/10/12 03:35:34;;;;;;;4.40;4.20;;;;;;;;;;5998940;29;20326;-94
2023/10/12 03:38:36;;;;;;;4.38;4.18;;;;;;;;;;6026209;29;20106;-95
2023/10/12 03:44:55;;;;;;;6.93;4.22;;;;;;;;;;6025485;29;20061;-94
2023/10/12 03:48:04;;;;;;;4.32;3.58;;;;;;;;;;6028240;29;20069;-94
2023/10/12 03:51:41;;;;;;;4.45;4.25;;;;;;;;;;6021222;29;20513;-93
2023/10/12 03:54:34;;;;;;;5.88;5.30;;;;;;;;;;6024243;29;20082;-92
2023/10/12 03:57:45;;;;;;;4.85;4.45;;;;;;;;;;6027315;29;20343;-94
2023/10/12 04:01:05;;;;;;;4.32;4.13;;;;;;;;;;5999255;29;20057;-93
2023/10/12 04:08:00;;;;;;;3.90;3.80;;;;;;;;;;6021269;29;20046;-94
2023/10/12 04:14:46;;;;;;;4.60;4.40;;;;;;;;;;6016079;29;20468;-95
2023/10/12 04:17:51;;;;;;;4.50;4.20;;;;;;;;;;6025961;29;20045;-92
2023/10/12 04:20:56;;;;;;;4.20;4.00;;;;;;;;;;6027252;29;20049;-89
2023/10/12 04:27:24;;;;;;;4.18;3.97;;;;;;;;;;6028835;29;20049;-93
2023/10/12 04:34:04;;;;;;;5.57;5.03;;;;;;;;;;6028053;29;20042;-91
2023/10/12 04:37:17;;;;;;;5.25;4.65;;;;;;;;;;6018695;29;20053;-91
2023/10/12 04:40:42;;;;;;;5.13;4.88;;;;;;;;;;6020541;29;20045;-91
2023/10/12 04:43:54;;;;;;;4.53;4.32;;;;;;;;;;6039492;29;20042;-95
2023/10/12 04:46:59;;;;;;;4.13;3.83;;;;;;;;;;6026648;29;20060;-93
2023/10/12 04:50:05;;;;;;;5.07;4.30;;;;;;;;;;6028535;29;20045;-94
2023/10/12 04:53:08;;;;;;;3.80;3.55;;;;;;;;;;6026992;29;20058;-95
2023/10/12 04:56:19;;;;;;;3.85;3.65;;;;;;;;;;6028531;29;20106;-96
2023/10/12 04:59:26;;;;;;;5.22;4.93;;;;;;;;;;6051026;29;20049;-96
2023/10/12 05:02:30;;;;;;;5.50;4.88;;;;;;;;;;6028958;29;20045;-96
2023/10/12 05:05:55;;;;;;;6.28;5.85;;;;;;;;;;6026706;29;20056;-95
2023/10/12 05:08:56;;;;;;;11.27;4.63;;;;;;;;;;6025566;29;20525;-96
2023/10/12 05:11:58;;;;;;;4.68;4.47;;;;;;;;;;6025854;29;20493;-95
2023/10/12 05:15:11;;;;;;;7.60;4.90;;;;;;;;;;6035448;29;20046;-95
2023/10/12 05:18:19;;;;;;;4.18;3.97;;;;;;;;;;6042434;29;20054;-96
2023/10/12 05:21:26;;;;;;;3.38;3.17;;;;;;;;;;6036368;29;20525;-96
2023/10/12 05:24:35;;;;;;;4.38;4.18;;;;;;;;;;6025650;29;20526;-96
2023/10/12 05:27:55;;;;;;;5.50;4.95;;;;;;;;;;6029520;29;20182;-95
2023/10/12 05:30:59;;;;;;;3.75;3.55;;;;;;;;;;6031273;29;20049;-96
2023/10/12 05:37:37;;;;;;;4.90;4.07;;;;;;;;;;6027334;29;20511;-96
2023/10/12 05:40:42;;;;;;;3.60;3.50;;;;;;;;;;6022974;29;20049;-95
2023/10/12 05:43:44;;;;;;;3.88;3.67;;;;;;;;;;6025881;29;20393;-96
2023/10/12 05:46:50;;;;;;;16.80;3.65;;;;;;;;;;6034248;29;20056;-95
2023/10/12 05:49:53;;;;;;;3.03;2.72;;;;;;;;;;6037930;29;20061;-96
2023/10/12 05:53:00;;;;;;;2.55;2.45;;;;;;;;;;6035164;29;20061;-96
2023/10/12 05:56:04;;;;;;;2.33;2.33;;;;;;;;;;6029010;29;20065;-96
2023/10/12 05:59:12;;;;;;;2.97;2.88;;;;;;;;;;6026881;29;20048;-96
2023/10/12 06:02:17;;;;;;;3.35;3.25;;;;;;;;;;6023520;29;20060;-96
2023/10/12 06:05:22;;;;;;;3.00;2.80;;;;;;;;;;6039340;29;20044;-96
2023/10/12 06:08:30;;;;;;;2.50;2.40;;;;;;;;;;6030176;29;20046;-96
2023/10/12 06:15:21;;;;;;;2.40;2.40;;;;;;;;;;6116627;24;20552;-93
2023/10/12 06:18:29;;;;;;;2.75;2.65;;;;;;;;;;6021436;29;20053;-92
2023/10/12 06:21:42;;;;;;;2.60;2.55;;;;;;;;;;6027815;29;20049;-92
2023/10/12 06:24:44;;;;;;;2.97;2.88;;;;;;;;;;6031444;29;20049;-92
2023/10/12 06:27:48;;;;;;;2.85;2.75;;;;;;;;;;6028944;29;20046;-92
2023/10/12 06:30:52;;;;;;;3.33;2.80;;;;;;;;;;6029324;29;20057;-93
2023/10/12 06:34:00;;;;;;;2.58;2.58;;;;;;;;;;6025873;29;20146;-92
2023/10/12 06:37:11;;;;;;;4.80;3.35;;;;;;;;;;6029473;29;20109;-92
2023/10/12 06:46:35;;;;;;;2.60;2.50;;;;;;;;;;6030863;29;20049;-91
2023/10/12 06:49:44;;;;;;;2.45;2.45;;;;;;;;;;6025117;29;20053;-93
2023/10/12 06:52:45;;;;;;;8.40;2.58;;;;;;;;;;6029719;29;20056;-92
2023/10/12 06:55:57;;;;;;;4.60;3.00;;;;;;;;;;6022182;29;20493;-92
2023/10/12 06:59:21;;;;;;;2.65;2.55;;;;;;;;;;6026892;29;20045;-92
2023/10/12 07:02:34;;;;;;;2.13;2.13;;;;;;;;;;6028287;29;20050;-94
2023/10/12 07:05:38;;;;;;;2.67;2.60;;;;;;;;;;6030145;29;20508;-93
2023/10/12 07:08:42;;;;;;;2.92;2.83;;;;;;;;;;6029737;29;20049;-94
2023/10/12 07:11:45;;;;;;;2.03;2.03;;;;;;;;;;6029187;29;20412;-93
2023/10/12 07:14:47;;;;;;;2.30;2.30;;;;;;;;;;6025481;29;20050;-93
2023/10/12 07:17:50;;;;;;;2.65;2.63;;;;;;;;;;6029264;29;21005;-94
2023/10/12 07:20:52;;;;;;;2.85;2.75;;;;;;;;;;6029746;29;20129;-93
2023/10/12 07:23:56;;;;;;;2.30;2.30;;;;;;;;;;6027395;29;20091;-92
2023/10/12 07:27:11;;;;;;;2.70;2.60;;;;;;;;;;6027626;29;20089;-92
2023/10/12 07:30:30;;;;;;;2.80;2.70;;;;;;;;;;6027508;29;20056;-94
2023/10/12 07:33:32;;;;;;;2.60;2.50;;;;;;;;;;6028058;29;20049;-92
2023/10/12 07:39:42;;;;;;;2.67;2.58;;;;;;;;;;6023368;29;20065;-93
2023/10/12 07:42:47;;;;;;;2.97;2.85;;;;;;;;;;6026052;29;20041;-91
2023/10/12 07:45:49;;;;;;;2.55;2.45;;;;;;;;;;6022495;29;20121;-91
2023/10/12 07:48:51;;;;;;;2.65;2.55;;;;;;;;;;6026730;29;20215;-92
2023/10/12 07:55:17;;;;;;;3.20;2.70;;;;;;;;;;6027989;29;20056;-93
2023/10/12 07:58:18;;;;;;;3.50;3.22;;;;;;;;;;6027752;29;20493;-92
2023/10/12 08:04:39;;;;;;;2.35;2.35;;;;;;;;;;6028143;29;20531;-92
2023/10/12 08:08:08;;;;;;;2.67;2.67;;;;;;;;;;6020557;29;20113;-94
2023/10/12 08:11:10;;;;;;;2.33;2.33;;;;;;;;;;6023198;29;20046;-94
2023/10/12 08:17:33;;;;;;;2.45;2.45;;;;;;;;;;6028015;29;20054;-95
2023/10/12 08:20:53;;;;;;;3.97;2.83;;;;;;;;;;6022436;29;20046;-96
2023/10/12 08:27:12;;;;;;;3.40;3.28;;;;;;;;;;6028086;29;20037;-95
2023/10/12 08:30:22;;;;;;;3.05;2.95;;;;;;;;;;6023943;29;20561;-96
2023/10/12 08:33:48;;;;;;;;;;;;;;;;;;6018540;29;20168;-95
2023/10/12 08:40:18;;;;;;;3.65;3.35;;;;;;;;;;5951643;29;20249;-95
2023/10/12 08:43:34;;;;;;;3.17;3.08;;;;;;;;;;5956281;29;20066;-93
2023/10/12 08:53:03;;;;;;;2.42;2.33;;;;;;;;;;5956989;29;20115;-94
2023/10/12 08:56:06;;;;;;;2.70;2.60;;;;;;;;;;5956558;29;20170;-93
2023/10/12 08:59:08;;;;;;;2.30;2.30;;;;;;;;;;5956339;29;20054;-93
2023/10/12 09:02:19;;;;;;;2.40;2.40;;;;;;;;;;5954541;29;20050;-93
2023/10/12 09:05:24;;;;;;;2.35;2.35;;;;;;;;;;5952641;29;20055;-92
2023/10/12 09:11:38;;;;;;;2.65;2.65;;;;;;;;;;5952961;29;20054;-92
2023/10/12 09:14:43;;;;;;;2.63;2.47;;;;;;;;;;5955552;29;20062;-92
2023/10/12 09:17:45;;;;;;;2.42;2.42;;;;;;;;;;6002219;29;20144;-94
2023/10/12 09:24:21;;;;;;;3.13;3.03;;;;;;;;;;6019247;29;20101;-94
2023/10/12 09:27:36;;;;;;;2.45;2.45;;;;;;;;;;6026527;29;20053;-95
2023/10/12 09:30:44;;;;;;;2.83;2.72;;;;;;;;;;6020512;29;20069;-94
2023/10/12 09:37:05;;;;;;;4.22;3.70;;;;;;;;;;6020242;29;20046;-95
2023/10/12 09:40:24;;;;;;;2.95;2.85;;;;;;;;;;6027123;29;20049;-95
2023/10/12 09:43:30;;;;;;;3.00;2.90;;;;;;;;;;6018561;29;20118;-94
2023/10/12 09:46:35;;;;;;;2.97;2.88;;;;;;;;;;6020213;29;20045;-95
2023/10/12 09:49:43;;;;;;;2.65;2.55;;;;;;;;;;6034537;29;20554;-96
2023/10/12 09:52:57;;;;;;;2.83;2.63;;;;;;;;;;6033022;29;20050;-96
2023/10/12 09:56:15;;;;;;;2.22;2.22;;;;;;;;;;6037886;29;20060;-95
2023/10/12 09:59:18;;;;;;;3.15;3.00;;;;;;;;;;6043610;29;20485;-96
2023/10/12 10:02:33;;;;;;;3.28;3.03;;;;;;;;;;6050066;29;20060;-96
2023/10/12 10:05:54;;;;;;;2.83;2.72;;;;;;;;;;6037296;29;20077;-95
2023/10/12 10:12:27;;;;;;;2.30;2.30;;;;;;;;;;5993035;29;20065;-95
2023/10/12 10:15:37;;;;;;;2.63;2.53;;;;;;;;;;5964028;29;20058;-95
2023/10/12 10:18:45;;;;;;;3.85;3.03;;;;;;;;;;5977872;29;20070;-94
2023/10/12 10:22:04;;;;;;;2.42;2.40;;;;;;;;;;5961349;29;20493;-94
2023/10/12 10:25:13;;;;;;;2.60;2.55;;;;;;;;;;5977547;29;20498;-93
2023/10/12 10:28:23;;;;;;;2.22;2.22;;;;;;;;;;5973425;29;20525;-94
2023/10/12 10:31:26;;;;;;;3.28;3.17;;;;;;;;;;5970878;29;20054;-94
2023/10/12 10:34:34;;;;;;;2.45;2.45;;;;;;;;;;5972863;29;20058;-94
2023/10/12 10:37:58;;;;;;;2.90;2.80;;;;;;;;;;5976358;29;20433;-93
2023/10/12 10:41:17;;;;;;;2.75;2.67;;;;;;;;;;5971098;29;20414;-93
2023/10/12 10:44:23;;;;;;;14.98;3.00;;;;;;;;;;5952048;29;20057;-92
2023/10/12 10:47:27;;;;;;;2.85;2.75;;;;;;;;;;5954945;29;20054;-93
2023/10/12 10:50:33;;;;;;;2.72;2.63;;;;;;;;;;6019764;29;20290;-92
2023/10/12 10:53:37;;;;;;;3.40;3.00;;;;;;;;;;6025696;29;20049;-91
2023/10/12 10:56:47;;;;;;;3.10;2.90;;;;;;;;;;6009538;29;20537;-92
2023/10/12 10:59:49;;;;;;;2.53;2.53;;;;;;;;;;6015862;29;20069;-91
2023/10/12 11:02:52;;;;;;;6.28;3.88;;;;;;;;;;6023484;29;20046;-91
2023/10/12 11:05:54;;;;;;;2.72;2.60;;;;;;;;;;6027012;29;20141;-91
2023/10/12 11:09:09;;;;;;;3.55;2.70;;;;;;;;;;6029325;29;20057;-91
2023/10/12 11:12:14;;;;;;;3.15;3.03;;;;;;;;;;6026511;29;20504;-90
2023/10/12 11:15:20;;;;;;;3.47;3.13;;;;;;;;;;6022426;29;20058;-90
2023/10/12 11:18:24;;;;;;;2.58;2.47;;;;;;;;;;6024791;29;20046;-90
2023/10/12 11:21:26;;;;;;;2.00;2.00;;;;;;;;;;6029539;29;20675;-90
2023/10/12 11:24:27;;;;;;;2.35;2.35;;;;;;;;;;6026729;29;20073;-90
2023/10/12 11:27:31;;;;;;;2.60;2.50;;;;;;;;;;6026975;29;20412;-90
2023/10/12 11:30:42;;;;;;;2.65;2.55;;;;;;;;;;6024851;29;20033;-90
2023/10/12 11:33:47;;;;;;;2.75;2.65;;;;;;;;;;6028329;29;20053;-90
2023/10/12 11:36:57;;;;;;;2.58;2.50;;;;;;;;;;6026869;29;20052;-89
2023/10/12 11:39:59;;;;;;;2.47;2.47;;;;;;;;;;6012402;29;20592;-90
2023/10/12 11:43:01;;;;;;;2.05;2.05;;;;;;;;;;6021716;29;20042;-89
2023/10/12 11:46:05;;;;;;;2.40;2.40;;;;;;;;;;6027116;29;20056;-89
2023/10/12 11:49:08;;;;;;;3.30;3.03;;;;;;;;;;6027517;29;20072;-89
2023/10/12 11:52:15;;;;;;;2.15;2.15;;;;;;;;;;6023963;29;20053;-89
2023/10/12 11:55:18;;;;;;;3.08;2.88;;;;;;;;;;6024051;29;20556;-89
2023/10/12 11:58:20;;;;;;;3.08;2.97;;;;;;;;;;6016052;29;20053;-90
2023/10/12 12:01:22;;;;;;;3.25;3.15;;;;;;;;;;6018511;29;20382;-90
2023/10/12 12:04:32;;;;;;;3.13;3.03;;;;;;;;;;6024253;29;20046;-95
2023/10/12 12:07:36;;;;;;;2.33;2.33;;;;;;;;;;6037087;29;20064;-94
2023/10/12 12:10:38;;;;;;;3.05;2.95;;;;;;;;;;6024627;29;20049;-93
2023/10/12 12:13:47;;;;;;;2.50;2.42;;;;;;;;;;6028084;29;20069;-94
2023/10/12 12:16:48;;;;;;;3.03;2.85;;;;;;;;;;6028645;29;20469;-93
2023/10/12 12:19:51;;;;;;;2.38;2.38;;;;;;;;;;6028539;29;20087;-94
2023/10/12 12:22:57;;;;;;;2.55;2.45;;;;;;;;;;6026867;29;20051;-94
2023/10/12 12:26:04;;;;;;;7.07;2.75;;;;;;;;;;6028466;29;20602;-96
2023/10/12 12:29:09;;;;;;;2.28;2.25;;;;;;;;;;6024276;29;20582;-94
2023/10/12 12:32:11;;;;;;;2.30;2.30;;;;;;;;;;6027684;29;20492;-94
2023/10/12 12:35:15;;;;;;;1.95;1.95;;;;;;;;;;6029137;29;20168;-95
2023/10/12 12:41:45;;;;;;;3.00;2.90;;;;;;;;;;5965681;29;20128;-93
2023/10/12 12:44:46;;;;;;;2.58;2.47;;;;;;;;;;5983775;29;20086;-94
2023/10/12 12:47:48;;;;;;;2.55;2.45;;;;;;;;;;5984192;29;20061;-94
2023/10/12 12:50:50;;;;;;;2.92;2.83;;;;;;;;;;5982837;29;20054;-93
2023/10/12 12:53:53;;;;;;;2.53;2.45;;;;;;;;;;5976859;29;20187;-93
2023/10/12 12:56:55;;;;;;;2.83;2.72;;;;;;;;;;5960983;29;20121;-93
2023/10/12 12:59:57;;;;;;;2.63;2.53;;;;;;;;;;5974042;29;20214;-93
2023/10/12 13:03:00;;;;;;;2.45;2.40;;;;;;;;;;5962266;29;20676;-93
2023/10/12 13:06:07;;;;;;;3.03;2.92;;;;;;;;;;5975422;29;20118;-92
2023/10/12 13:12:31;;;;;;;2.92;2.83;;;;;;;;;;5981492;29;20581;-93
2023/10/12 13:15:41;;;;;;;2.97;2.88;;;;;;;;;;5971604;29;20053;-93
2023/10/12 13:18:46;;;;;;;2.83;2.72;;;;;;;;;;5990872;29;20487;-94
2023/10/12 13:21:49;;;;;;;4.00;3.80;;;;;;;;;;6028293;29;20040;-90
2023/10/12 13:24:56;;;;;;;2.20;2.20;;;;;;;;;;6018540;29;20508;-92
2023/10/12 13:28:00;;;;;;;2.50;2.40;;;;;;;;;;6018348;29;20525;-93
2023/10/12 13:31:04;;;;;;;2.25;2.25;;;;;;;;;;6021353;29;20432;-93
2023/10/12 13:34:10;;;;;;;3.42;3.13;;;;;;;;;;6029424;29;20045;-94
2023/10/12 13:37:13;;;;;;;2.85;2.75;;;;;;;;;;6028644;29;20053;-95
2023/10/12 13:40:18;;;;;;;2.53;2.50;;;;;;;;;;6006139;29;20418;-94
2023/10/12 13:43:34;;;;;;;7.80;2.75;;;;;;;;;;6030124;29;20069;-94
2023/10/12 13:46:38;;;;;;;2.85;2.70;;;;;;;;;;6029052;29;20484;-93
2023/10/12 13:49:41;;;;;;;3.13;2.95;;;;;;;;;;6016839;29;20070;-95
2023/10/12 13:52:43;;;;;;;3.05;2.95;;;;;;;;;;6024599;29;20050;-95
2023/10/12 13:55:47;;;;;;;2.55;2.55;;;;;;;;;;6032495;29;20049;-94
2023/10/12 13:58:52;;;;;;;2.58;2.53;;;;;;;;;;6028951;29;20182;-94
2023/10/12 14:01:56;;;;;;;5.35;2.75;;;;;;;;;;6035200;29;20042;-95
2023/10/12 14:05:00;;;;;;;2.50;2.50;;;;;;;;;;6038885;29;20046;-94
2023/10/12 14:08:03;;;;;;;3.38;3.28;;;;;;;;;;6025275;29;20056;-94
2023/10/12 14:11:06;;;;;;;2.67;2.67;;;;;;;;;;6028011;29;20110;-94
2023/10/12 14:14:09;;;;;;;2.50;2.40;;;;;;;;;;6030587;29;20053;-94
2023/10/12 14:17:11;;;;;;;2.25;2.25;;;;;;;;;;6029940;29;20056;-94
2023/10/12 14:20:14;;;;;;;2.67;2.67;;;;;;;;;;6025395;29;20213;-94
2023/10/12 14:23:16;;;;;;;2.30;2.30;;;;;;;;;;6027775;29;20563;-94
2023/10/12 14:26:18;;;;;;;2.88;2.75;;;;;;;;;;6025783;29;20044;-94
2023/10/12 14:29:20;;;;;;;3.40;3.20;;;;;;;;;;6009008;29;20092;-94
2023/10/12 14:32:25;;;;;;;2.40;2.40;;;;;;;;;;6037634;29;20053;-94
2023/10/12 14:35:28;;;;;;;2.55;2.55;;;;;;;;;;6016781;29;20120;-94
2023/10/12 14:38:32;;;;;;;3.13;3.03;;;;;;;;;;6015605;29;20049;-94
2023/10/12 14:41:36;;;;;;;3.10;3.00;;;;;;;;;;6024243;29;20507;-94
2023/10/12 14:44:38;;;;;;;2.83;2.67;;;;;;;;;;6021989;29;20413;-94
2023/10/12 14:47:40;;;;;;;2.80;2.70;;;;;;;;;;6020818;29;20125;-94
2023/10/12 14:50:45;;;;;;;2.28;2.28;;;;;;;;;;6027484;29;20048;-93
2023/10/12 14:53:50;;;;;;;3.72;3.55;;;;;;;;;;6024848;29;20552;-93
2023/10/12 14:56:53;;;;;;;3.53;3.33;;;;;;;;;;6023020;29;20041;-93
2023/10/12 14:59:55;;;;;;;3.00;2.90;;;;;;;;;;6012081;29;20429;-93
2023/10/12 15:02:57;;;;;;;3.00;2.90;;;;;;;;;;6023543;29;20463;-93
2023/10/12 15:06:00;;;;;;;3.67;3.47;;;;;;;;;;6021475;29;20073;-93
2023/10/12 15:09:11;;;;;;;2.50;2.50;;;;;;;;;;6026780;29;20431;-94
2023/10/12 15:12:13;;;;;;;3.35;3.17;;;;;;;;;;6024939;29;20556;-93
2023/10/12 15:15:18;;;;;;;2.30;2.30;;;;;;;;;;6022066;29;20037;-92
2023/10/12 15:18:23;;;;;;;3.15;3.03;;;;;;;;;;6024557;29;20057;-93
2023/10/12 15:21:25;;;;;;;3.25;3.15;;;;;;;;;;6022514;29;20065;-92
2023/10/12 15:24:40;;;;;;;2.70;2.60;;;;;;;;;;6017969;29;20042;-92
2023/10/12 15:27:44;;;;;;;2.58;2.58;;;;;;;;;;6002768;29;20499;-92
2023/10/12 15:30:46;;;;;;;2.40;2.40;;;;;;;;;;6018346;29;20401;-92
2023/10/12 15:33:50;;;;;;;3.08;2.97;;;;;;;;;;6021586;29;20079;-92
2023/10/12 15:36:52;;;;;;;3.00;2.90;;;;;;;;;;6020758;29;20306;-92
2023/10/12 15:39:54;;;;;;;2.63;2.55;;;;;;;;;;6025037;29;20050;-92
2023/10/12 15:42:57;;;;;;;2.92;2.83;;;;;;;;;;6020229;29;20128;-91
2023/10/12 15:46:06;;;;;;;3.17;3.08;;;;;;;;;;6016810;29;20057;-92
2023/10/12 15:49:09;;;;;;;2.33;2.33;;;;;;;;;;6019414;29;20045;-91
2023/10/12 15:52:11;;;;;;;2.97;2.88;;;;;;;;;;6015247;29;20094;-91
2023/10/12 15:55:13;;;;;;;3.58;3.28;;;;;;;;;;6020152;29;20072;-92
2023/10/12 15:58:16;;;;;;;2.97;2.88;;;;;;;;;;6015489;29;20050;-91
2023/10/12 16:01:18;;;;;;;3.65;3.55;;;;;;;;;;6019263;29;20049;-91
2023/10/12 16:04:19;;;;;;;4.40;3.65;;;;;;;;;;6021128;29;20606;-91
2023/10/12 16:07:21;;;;;;;3.30;3.20;;;;;;;;;;6022043;29;20362;-92
2023/10/12 16:10:27;;;;;;;2.92;2.83;;;;;;;;;;6018344;29;20049;-92
2023/10/12 16:13:29;;;;;;;2.50;2.50;;;;;;;;;;6017512;29;20050;-93
2023/10/12 16:16:31;;;;;;;3.00;2.90;;;;;;;;;;6022896;29;20046;-94
2023/10/12 16:19:33;;;;;;;2.80;2.70;;;;;;;;;;6010167;29;20082;-95
2023/10/12 16:22:41;;;;;;;3.17;2.97;;;;;;;;;;6028213;29;20050;-96
2023/10/12 16:25:49;;;;;;;2.60;2.50;;;;;;;;;;6056706;29;20048;-96
2023/10/12 16:29:00;;;;;;;2.47;2.38;;;;;;;;;;6050409;29;20062;-95
2023/10/12 16:32:02;;;;;;;3.08;2.97;;;;;;;;;;6026635;29;20511;-95
2023/10/12 16:35:05;;;;;;;3.03;2.92;;;;;;;;;;6017241;29;20493;-95
2023/10/12 16:38:07;;;;;;;2.50;2.45;;;;;;;;;;6023710;29;20175;-94
2023/10/12 16:41:09;;;;;;;2.55;2.45;;;;;;;;;;6019408;29;20056;-95
2023/10/12 16:44:11;;;;;;;2.97;2.88;;;;;;;;;;6023436;29;20053;-94
2023/10/12 16:47:12;;;;;;;3.00;2.90;;;;;;;;;;6025302;29;20041;-95
2023/10/12 16:50:16;;;;;;;3.13;3.03;;;;;;;;;;6022850;29;20050;-94
2023/10/12 16:53:18;;;;;;;2.97;2.88;;;;;;;;;;6037547;29;20117;-95
2023/10/12 16:56:20;;;;;;;3.22;3.03;;;;;;;;;;6020682;29;20366;-95
2023/10/12 16:59:22;;;;;;;2.75;2.65;;;;;;;;;;6032021;29;20048;-95
2023/10/12 17:02:24;;;;;;;2.88;2.78;;;;;;;;;;6038738;29;20043;-95
2023/10/12 17:05:26;;;;;;;2.85;2.70;;;;;;;;;;6046989;29;20127;-96
2023/10/12 17:08:29;;;;;;;2.10;2.10;;;;;;;;;;6047822;29;20049;-96
2023/10/12 17:11:37;;;;;;;2.60;2.50;;;;;;;;;;6637618;23;20169;-96
2023/10/12 17:14:44;;;;;;;2.55;2.45;;;;;;;;;;6780880;23;20057;-96
2023/10/12 17:18:25;;;;;;;2.97;2.78;;;;;;;;;;6876934;24;20053;-96
2023/10/12 17:21:28;;;;;;;3.08;2.97;;;;;;;;;;6138117;24;20065;-96
2023/10/12 17:24:48;;;;;;;4.22;4.13;;;;;;;;;;6615433;24;20050;-96
2023/10/12 17:28:08;;;;;;;3.90;3.75;;;;;;;;;;7283624;24;20181;-96
2023/10/12 17:31:28;;;;;;;3.00;2.90;;;;;;;;;;5999377;29;20034;-96
2023/10/12 17:34:37;;;;;;;3.20;2.85;;;;;;;;;;6028117;29;20068;-96
2023/10/12 17:41:34;;;;;;;4.00;3.80;;;;;;;;;;6580543;23;20057;-96
2023/10/12 17:44:37;;;;;;;3.50;3.35;;;;;;;;;;6000062;29;20190;-96
2023/10/12 17:47:45;;;;;;;3.72;3.53;;;;;;;;;;6009007;29;20026;-96
2023/10/12 17:50:49;;;;;;;3.28;3.08;;;;;;;;;;6021082;29;20133;-95
2023/10/12 17:53:52;;;;;;;3.33;3.15;;;;;;;;;;6036167;29;20042;-96
2023/10/12 17:57:01;;;;;;;5.50;4.07;;;;;;;;;;6000891;29;20126;-94
2023/10/12 18:00:10;;;;;;;4.22;4.03;;;;;;;;;;6008966;29;20406;-94
2023/10/12 18:03:12;;;;;;;3.25;3.13;;;;;;;;;;6007855;29;20049;-95
2023/10/12 18:06:15;;;;;;;8.70;3.70;;;;;;;;;;6008850;29;20105;-96
2023/10/12 18:09:18;;;;;;;4.85;4.55;;;;;;;;;;5966696;29;20048;-94
2023/10/12 18:12:22;;;;;;;3.70;3.55;;;;;;;;;;5999298;29;20501;-95
2023/10/12 18:15:25;;;;;;;3.20;3.10;;;;;;;;;;6006089;29;20053;-96
2023/10/12 18:18:27;;;;;;;3.70;3.60;;;;;;;;;;6223989;24;20091;-96
2023/10/12 18:21:30;;;;;;;3.75;3.55;;;;;;;;;;6021551;29;20056;-96
2023/10/12 18:24:32;;;;;;;5.28;3.53;;;;;;;;;;6003883;29;20079;-94
2023/10/12 18:27:34;;;;;;;3.92;3.63;;;;;;;;;;6002169;29;20103;-95
2023/10/12 18:30:38;;;;;;;4.20;4.00;;;;;;;;;;6008586;29;20544;-94
2023/10/12 18:33:41;;;;;;;3.65;3.47;;;;;;;;;;5989694;29;20086;-94
2023/10/12 18:36:43;;;;;;;3.72;3.63;;;;;;;;;;5993474;29;20412;-94
2023/10/12 18:39:55;;;;;;;3.13;3.03;;;;;;;;;;5986288;29;20058;-93
2023/10/12 18:42:58;;;;;;;4.70;4.45;;;;;;;;;;5988928;29;20057;-95
2023/10/12 18:46:00;;;;;;;3.88;3.67;;;;;;;;;;5993139;29;20046;-94
2023/10/12 18:49:03;;;;;;;3.33;3.13;;;;;;;;;;6011506;29;20042;-95
2023/10/12 18:52:06;;;;;;;4.30;3.95;;;;;;;;;;5991483;29;20062;-96
2023/10/12 18:55:08;;;;;;;3.80;3.60;;;;;;;;;;5991764;29;20134;-95
2023/10/12 18:58:11;;;;;;;3.38;3.28;;;;;;;;;;5996662;29;20206;-94
2023/10/12 19:01:13;;;;;;;3.33;3.22;;;;;;;;;;5996900;29;20050;-96
2023/10/12 19:04:16;;;;;;;3.60;3.50;;;;;;;;;;6000957;29;20064;-95
2023/10/12 19:07:21;;;;;;;2.95;2.85;;;;;;;;;;6025232;29;20130;-95
2023/10/12 19:10:25;;;;;;;4.15;3.45;;;;;;;;;;6016321;29;20498;-95
2023/10/12 19:13:29;;;;;;;3.40;3.20;;;;;;;;;;6000198;29;20061;-96
2023/10/12 19:16:33;;;;;;;4.72;4.45;;;;;;;;;;6013304;29;20047;-94
2023/10/12 19:19:35;;;;;;;4.00;3.80;;;;;;;;;;6019608;29;20047;-95
2023/10/12 19:22:39;;;;;;;3.78;3.53;;;;;;;;;;6005037;29;20409;-95
2023/10/12 19:25:46;;;;;;;3.53;3.33;;;;;;;;;;5994144;29;20050;-96
2023/10/12 19:28:48;;;;;;;4.05;3.85;;;;;;;;;;5996531;29;20054;-94
2023/10/12 19:31:52;;;;;;;3.85;3.65;;;;;;;;;;5999332;29;20413;-95
2023/10/12 19:34:54;;;;;;;3.15;3.05;;;;;;;;;;5981511;29;20517;-95
2023/10/12 19:37:57;;;;;;;5.38;4.78;;;;;;;;;;5993568;29;20344;-95
2023/10/12 19:41:04;;;;;;;3.65;3.50;;;;;;;;;;5989477;29;20055;-94
2023/10/12 19:44:09;;;;;;;3.58;3.47;;;;;;;;;;5984147;29;20074;-94
2023/10/12 19:47:12;;;;;;;2.95;2.85;;;;;;;;;;6001117;29;20061;-96
2023/10/12 19:50:15;;;;;;;3.78;3.65;;;;;;;;;;5992136;29;20058;-94
2023/10/12 19:53:17;;;;;;;3.25;3.10;;;;;;;;;;5983398;29;20105;-95
2023/10/12 19:56:20;;;;;;;4.03;3.88;;;;;;;;;;5981518;29;20584;-95
2023/10/12 19:59:23;;;;;;;4.68;4.38;;;;;;;;;;5981765;29;20050;-96
2023/10/12 20:02:27;;;;;;;3.85;3.65;;;;;;;;;;6008503;29;20509;-95
2023/10/12 20:05:29;;;;;;;4.50;4.22;;;;;;;;;;5993702;29;20134;-95